Time;durP1;ratioP1;P1;durP2;ratioP2;P2;SDS_P1;SDS_P2;PMS_P1;PMS_P2;Temp;Humidity;BMP_temperature;BMP_pressure;BME280_temperature;BME280_humidity;BME280_pressure;Samples;Min_cycle;Max_cycle;Signal;HPM_P1;HPM_P2
2021/04/13 00:02:34;;;;;;;5.43;5.03;;;2.40;99.90;;;;;;5066957;28;20560;-84
2021/04/13 00:05:24;;;;;;;5.53;4.77;;;2.30;99.90;;;;;;5042874;28;20432;-84
2021/04/13 00:07:50;;;;;;;4.70;3.83;;;2.50;99.90;;;;;;5032305;28;20451;-84
2021/04/13 00:10:21;;;;;;;5.23;4.73;;;2.00;99.90;;;;;;5032288;28;20502;-84
2021/04/13 00:12:47;;;;;;;5.43;4.93;;;2.50;99.90;;;;;;5033705;28;20482;-84
2021/04/13 00:15:17;;;;;;;4.93;4.43;;;2.00;99.90;;;;;;5034841;28;20447;-84
2021/04/13 00:17:44;;;;;;;4.57;4.17;;;2.50;99.90;;;;;;5033620;28;20419;-84
2021/04/13 00:20:33;;;;;;;5.10;4.70;;;2.60;99.90;;;;;;5033848;28;20491;-84
2021/04/13 00:22:59;;;;;;;6.73;5.93;;;2.80;99.90;;;;;;5033942;28;20438;-84
2021/04/13 00:25:34;;;;;;;5.90;5.23;;;2.60;99.90;;;;;;5035011;28;20498;-84
2021/04/13 00:28:00;;;;;;;6.00;5.50;;;2.90;99.90;;;;;;5033512;28;20183;-84
2021/04/13 00:30:37;;;;;;;6.43;5.90;;;2.70;99.90;;;;;;5034733;28;20415;-84
2021/04/13 00:33:04;;;;;;;6.03;5.17;;;2.80;99.90;;;;;;5033461;28;20212;-84
2021/04/13 00:35:36;;;;;;;5.20;4.70;;;2.80;99.90;;;;;;5033571;28;20466;-84
2021/04/13 00:38:25;;;;;;;5.20;4.77;;;2.70;99.90;;;;;;5034695;28;20451;-84
2021/04/13 00:40:53;;;;;;;7.40;4.80;;;2.60;99.90;;;;;;5050363;28;20857;-84
2021/04/13 00:43:22;;;;;;;5.23;4.73;;;2.20;99.90;;;;;;5033243;28;20426;-84
2021/04/13 00:45:48;;;;;;;5.27;4.80;;;2.20;99.90;;;;;;5033236;28;20427;-84
2021/04/13 00:48:26;;;;;;;5.90;5.30;;;2.40;99.90;;;;;;5033245;28;20411;-84
2021/04/13 00:50:59;;;;;;;6.30;5.60;;;2.20;99.90;;;;;;5033274;28;20419;-84
2021/04/13 00:53:27;;;;;;;6.00;5.60;;;1.70;99.90;;;;;;5033389;28;20423;-84
2021/04/13 00:55:59;;;;;;;5.70;5.20;;;1.70;99.90;;;;;;5033118;28;20911;-84
2021/04/13 00:58:34;;;;;;;5.93;5.33;;;2.30;99.90;;;;;;5034479;28;20958;-84
2021/04/13 01:01:22;;;;;;;5.70;5.20;;;2.30;99.90;;;;;;5049591;28;21003;-84
2021/04/13 01:04:02;;;;;;;7.07;5.63;;;2.00;99.90;;;;;;5032378;28;20938;-84
2021/04/13 01:06:31;;;;;;;6.17;5.50;;;2.20;99.90;;;;;;5033129;28;20439;-84
2021/04/13 01:09:06;;;;;;;6.00;5.40;;;1.80;99.90;;;;;;5032588;28;20422;-84
2021/04/13 01:11:39;;;;;;;7.10;5.50;;;2.20;99.90;;;;;;5032897;28;20433;-84
2021/04/13 01:14:06;;;;;;;6.23;5.63;;;1.80;99.90;;;;;;5032977;28;20424;-84
2021/04/13 01:16:51;;;;;;;7.27;6.57;;;1.70;99.90;;;;;;5034053;28;20786;-84
2021/04/13 01:20:10;;;;;;;6.77;6.07;;;2.20;99.90;;;;;;5032798;28;20501;-84
2021/04/13 01:25:16;;;;;;;9.93;5.33;;;2.10;99.90;;;;;;5034092;28;20763;-84
2021/04/13 01:27:55;;;;;;;5.90;5.30;;;1.70;99.90;;;;;;5049379;28;20419;-84
2021/04/13 01:30:23;;;;;;;6.57;5.97;;;1.60;99.90;;;;;;5034032;28;20172;-84
2021/04/13 01:32:49;;;;;;;7.07;6.40;;;2.00;99.90;;;;;;5032541;28;20507;-84
2021/04/13 01:35:16;;;;;;;6.77;5.73;;;2.00;99.90;;;;;;5032240;28;20471;-84
2021/04/13 01:40:42;;;;;;;7.57;6.80;;;2.00;99.90;;;;;;5033953;28;20431;-84
2021/04/13 01:43:09;;;;;;;8.70;6.40;;;2.10;99.90;;;;;;5033551;28;20454;-84
2021/04/13 01:45:36;;;;;;;9.90;7.17;;;2.00;99.90;;;;;;5032123;28;20423;-84
2021/04/13 01:48:05;;;;;;;7.03;6.30;;;1.90;99.90;;;;;;5031666;28;20431;-84
2021/04/13 01:50:35;;;;;;;6.77;6.17;;;1.90;99.90;;;;;;5033201;28;20477;-84
2021/04/13 01:53:21;;;;;;;8.30;6.40;;;2.00;99.90;;;;;;5033725;28;20937;-84
2021/04/13 01:55:52;;;;;;;6.77;6.17;;;2.10;99.90;;;;;;5032071;28;20481;-84
2021/04/13 01:58:35;;;;;;;7.67;6.90;;;1.90;99.90;;;;;;5031774;28;20603;-83
2021/04/13 02:01:11;;;;;;;7.23;6.53;;;2.00;99.90;;;;;;5048162;28;20431;-84
2021/04/13 02:03:52;;;;;;;7.87;6.50;;;2.00;99.90;;;;;;5031108;28;20525;-84
2021/04/13 02:06:26;;;;;;;7.20;5.83;;;2.00;99.90;;;;;;5033098;28;20480;-84
2021/04/13 02:08:58;;;;;;;7.50;6.53;;;1.60;99.90;;;;;;5048364;28;20771;-84
2021/04/13 02:11:27;;;;;;;6.20;5.60;;;2.00;99.90;;;;;;5033084;28;20981;-84
2021/04/13 02:13:56;;;;;;;9.10;6.63;;;2.00;99.90;;;;;;5032710;28;20449;-84
2021/04/13 02:16:39;;;;;;;7.20;6.50;;;1.70;99.90;;;;;;5031792;28;20526;-84
2021/04/13 02:19:09;;;;;;;8.87;7.17;;;2.10;99.90;;;;;;5032836;28;20473;-84
2021/04/13 02:21:41;;;;;;;7.80;6.50;;;1.60;99.90;;;;;;5031767;28;20411;-84
2021/04/13 02:24:09;;;;;;;6.67;5.97;;;2.00;99.90;;;;;;5031686;28;20514;-84
2021/04/13 02:26:44;;;;;;;7.43;6.67;;;2.00;99.90;;;;;;5048012;28;20419;-84
2021/04/13 02:29:12;;;;;;;6.90;6.03;;;1.90;99.90;;;;;;5048012;28;20981;-84
2021/04/13 02:31:47;;;;;;;7.00;5.97;;;1.90;99.90;;;;;;5032764;28;20411;-84
2021/04/13 02:34:20;;;;;;;8.33;6.27;;;1.50;99.90;;;;;;5032392;28;20414;-84
2021/04/13 02:37:16;;;;;;;7.63;6.40;;;1.80;99.90;;;;;;5031429;28;20424;-84
2021/04/13 02:39:42;;;;;;;6.43;5.83;;;2.00;99.90;;;;;;5027485;28;20479;-84
2021/04/13 02:42:20;;;;;;;9.67;6.70;;;1.50;99.90;;;;;;5031628;28;20431;-84
2021/04/13 02:45:03;;;;;;;7.90;7.10;;;2.00;99.90;;;;;;5032685;28;20802;-84
2021/04/13 02:47:31;;;;;;;7.30;6.57;;;1.60;99.90;;;;;;5032717;28;20417;-84
2021/04/13 02:50:01;;;;;;;8.73;6.50;;;1.70;99.90;;;;;;5032483;28;20474;-84
2021/04/13 02:52:41;;;;;;;7.13;6.50;;;1.70;99.90;;;;;;5032130;28;20403;-84
2021/04/13 02:55:09;;;;;;;8.70;6.40;;;1.80;99.90;;;;;;5031363;28;20431;-82
2021/04/13 02:57:41;;;;;;;9.40;6.00;;;2.30;99.90;;;;;;5031475;28;20412;-82
2021/04/13 03:00:16;;;;;;;7.57;6.80;;;2.40;99.90;;;;;;5032504;28;20479;-82
2021/04/13 03:02:55;;;;;;;7.50;6.80;;;2.50;99.90;;;;;;5030372;28;20431;-82
2021/04/13 03:05:25;;;;;;;8.43;7.07;;;2.40;99.90;;;;;;5028793;28;20439;-81
2021/04/13 03:07:52;;;;;;;6.10;5.53;;;2.40;99.90;;;;;;5031792;28;20775;-82
2021/04/13 03:10:26;;;;;;;13.43;6.57;;;2.10;99.90;;;;;;5037091;28;20459;-84
2021/04/13 03:12:53;;;;;;;10.00;7.17;;;2.20;99.90;;;;;;5035100;28;20446;-84
2021/04/13 03:15:24;;;;;;;6.80;6.20;;;2.10;99.90;;;;;;5036444;28;20419;-84
2021/04/13 03:17:54;;;;;;;9.40;6.50;;;1.70;99.90;;;;;;5035193;28;20522;-84
2021/04/13 03:20:42;;;;;;;8.83;6.80;;;2.00;99.90;;;;;;5034919;28;20498;-83
2021/04/13 03:23:09;;;;;;;7.03;6.40;;;1.80;99.90;;;;;;5051793;28;20431;-84
2021/04/13 03:25:40;;;;;;;7.30;6.60;;;1.80;99.90;;;;;;5034970;28;20478;-84
2021/04/13 03:28:08;;;;;;;8.13;6.80;;;1.90;99.90;;;;;;5034891;28;20427;-84
2021/04/13 03:30:37;;;;;;;10.90;6.47;;;2.10;99.90;;;;;;5036473;28;20411;-85
2021/04/13 03:33:12;;;;;;;10.20;8.70;;;2.00;99.90;;;;;;5034939;28;20508;-84
2021/04/13 03:35:38;;;;;;;12.33;10.87;;;1.90;99.90;;;;;;5035076;28;20426;-84
2021/04/13 03:38:08;;;;;;;8.67;7.83;;;1.90;99.90;;;;;;5035971;28;20423;-84
2021/04/13 03:40:36;;;;;;;9.37;8.03;;;1.60;99.90;;;;;;5035720;28;20517;-83
2021/04/13 03:43:08;;;;;;;7.63;6.77;;;2.00;99.90;;;;;;5037391;28;20415;-84
2021/04/13 03:45:36;;;;;;;7.40;6.20;;;2.00;99.90;;;;;;5034835;28;20510;-84
2021/04/13 03:48:12;;;;;;;6.50;5.90;;;1.80;99.90;;;;;;5035213;28;20461;-84
2021/04/13 03:50:40;;;;;;;13.03;7.47;;;1.70;99.90;;;;;;5035098;28;20484;-84
2021/04/13 03:53:08;;;;;;;7.33;6.17;;;1.60;99.90;;;;;;5035880;28;20411;-84
2021/04/13 03:55:34;;;;;;;6.57;5.87;;;1.30;99.90;;;;;;5035204;28;20431;-84
2021/04/13 03:58:16;;;;;;;7.70;6.90;;;1.60;99.90;;;;;;5035192;28;20415;-84
2021/04/13 04:00:43;;;;;;;7.23;6.23;;;1.60;99.90;;;;;;5035013;28;20927;-84
2021/04/13 04:03:09;;;;;;;6.70;6.10;;;1.80;99.90;;;;;;5033844;28;20426;-84
2021/04/13 04:05:56;;;;;;;6.47;5.77;;;1.40;99.90;;;;;;5033880;28;20427;-84
2021/04/13 04:08:34;;;;;;;9.50;7.50;;;1.70;99.90;;;;;;5034267;28;20461;-84
2021/04/13 04:11:00;;;;;;;7.23;6.50;;;1.20;99.90;;;;;;5050433;28;20467;-84
2021/04/13 04:13:29;;;;;;;7.40;6.60;;;1.30;99.90;;;;;;5033956;28;20537;-84
2021/04/13 04:16:27;;;;;;;7.33;6.63;;;1.50;99.90;;;;;;5033875;28;20424;-84
2021/04/13 04:18:53;;;;;;;8.90;7.73;;;2.10;99.90;;;;;;5034578;28;20528;-84
2021/04/13 04:21:35;;;;;;;11.20;7.80;;;2.20;99.90;;;;;;5035289;28;20775;-84
2021/04/13 04:24:08;;;;;;;10.57;8.03;;;2.00;99.90;;;;;;5033648;28;20522;-85
2021/04/13 04:26:46;;;;;;;7.77;7.00;;;2.30;99.90;;;;;;5050340;28;20430;-84
2021/04/13 04:29:13;;;;;;;12.30;9.03;;;2.30;99.90;;;;;;5034926;28;20422;-83
2021/04/13 04:31:41;;;;;;;9.40;7.33;;;2.30;99.90;;;;;;5050128;28;20854;-84
2021/04/13 04:34:15;;;;;;;10.23;9.20;;;1.80;99.90;;;;;;5035335;28;20411;-84
2021/04/13 04:36:54;;;;;;;9.30;8.03;;;1.90;99.90;;;;;;5050273;28;20961;-84
2021/04/13 04:39:31;;;;;;;10.70;8.70;;;2.40;99.90;;;;;;5034664;28;20481;-83
2021/04/13 04:42:07;;;;;;;10.30;9.13;;;2.30;99.90;;;;;;5035032;28;20949;-84
2021/04/13 04:44:33;;;;;;;17.27;8.77;;;2.40;99.90;;;;;;5033769;28;20422;-83
2021/04/13 04:47:00;;;;;;;10.83;9.10;;;2.50;99.90;;;;;;5034466;28;20458;-85
2021/04/13 04:49:40;;;;;;;23.17;11.40;;;2.10;99.90;;;;;;5033421;28;21016;-85
2021/04/13 04:52:06;;;;;;;13.07;11.67;;;2.00;99.90;;;;;;5033671;28;20439;-83
2021/04/13 04:54:32;;;;;;;8.63;7.83;;;1.70;99.90;;;;;;5033530;28;20423;-84
2021/04/13 04:56:58;;;;;;;9.00;8.10;;;2.10;99.90;;;;;;5032982;28;20959;-83
2021/04/13 04:59:23;;;;;;;10.17;7.57;;;1.70;99.90;;;;;;5028619;28;20694;-82
2021/04/13 05:01:51;;;;;;;10.30;7.00;;;1.70;99.90;;;;;;5033497;28;20246;-82
2021/04/13 05:04:17;;;;;;;9.83;6.93;;;1.90;99.90;;;;;;5035169;28;20663;-84
2021/04/13 05:06:43;;;;;;;8.93;7.00;;;1.90;99.90;;;;;;5032467;28;20428;-83
2021/04/13 05:09:08;;;;;;;8.73;7.20;;;1.70;99.90;;;;;;5030143;28;20536;-84
2021/04/13 05:11:34;;;;;;;9.50;7.67;;;1.90;99.90;;;;;;5030655;28;20187;-83
2021/04/13 05:14:00;;;;;;;8.47;7.07;;;1.80;99.90;;;;;;5031605;28;20238;-84
2021/04/13 05:16:25;;;;;;;8.73;7.83;;;1.30;99.90;;;;;;5031886;28;20235;-83
2021/04/13 05:18:51;;;;;;;9.67;7.63;;;1.70;99.90;;;;;;5031481;28;20213;-82
2021/04/13 05:21:18;;;;;;;9.60;8.60;;;1.40;99.90;;;;;;5033712;28;20181;-83
2021/04/13 05:23:44;;;;;;;12.07;8.30;;;1.80;99.90;;;;;;5033697;28;20502;-83
2021/04/13 05:26:10;;;;;;;11.50;8.87;;;1.90;99.90;;;;;;5049834;28;20493;-83
2021/04/13 05:28:36;;;;;;;15.43;8.13;;;1.80;99.90;;;;;;5048284;28;20423;-83
2021/04/13 05:31:03;;;;;;;9.53;8.53;;;2.10;99.90;;;;;;5049777;28;20439;-82
2021/04/13 05:33:29;;;;;;;8.40;7.60;;;2.30;99.90;;;;;;5048482;28;20927;-83
2021/04/13 05:35:55;;;;;;;8.70;7.50;;;2.40;99.90;;;;;;5050287;28;20470;-83
2021/04/13 05:38:34;;;;;;;11.70;8.07;;;2.30;99.90;;;;;;5048394;28;20475;-85
2021/04/13 05:41:02;;;;;;;10.93;7.20;;;2.90;99.90;;;;;;5032866;28;20503;-82
2021/04/13 05:43:28;;;;;;;16.27;9.40;;;2.90;99.90;;;;;;5048653;28;20469;-84
2021/04/13 05:46:03;;;;;;;8.87;6.97;;;2.80;99.90;;;;;;5033559;28;20440;-84
2021/04/13 05:48:29;;;;;;;16.00;9.30;;;3.30;99.90;;;;;;5048416;28;20503;-84
2021/04/13 05:50:55;;;;;;;11.80;8.47;;;2.90;99.90;;;;;;5048106;28;20506;-84
2021/04/13 05:53:21;;;;;;;12.93;8.00;;;3.00;99.90;;;;;;5045290;28;20928;-83
2021/04/13 05:55:48;;;;;;;10.37;8.87;;;3.40;99.90;;;;;;5045497;28;20442;-83
2021/04/13 05:58:20;;;;;;;10.60;8.50;;;3.90;99.90;;;;;;5033894;28;20262;-82
2021/04/13 06:00:50;;;;;;;15.13;10.87;;;4.50;99.90;;;;;;5031943;28;20928;-83
2021/04/13 06:03:21;;;;;;;9.50;8.10;;;4.80;99.90;;;;;;5030907;28;20534;-85
2021/04/13 06:05:48;;;;;;;10.60;8.37;;;5.40;99.90;;;;;;5030206;28;20813;-84
2021/04/13 06:08:14;;;;;;;8.87;8.03;;;5.70;99.90;;;;;;5031335;28;20450;-84
2021/04/13 06:10:41;;;;;;;7.70;7.03;;;6.00;99.90;;;;;;5031323;28;20532;-83
2021/04/13 06:13:07;;;;;;;9.87;8.37;;;6.10;99.90;;;;;;5032564;28;20434;-84
2021/04/13 06:15:34;;;;;;;9.60;8.60;;;6.10;99.90;;;;;;5032700;28;20419;-84
2021/04/13 06:18:00;;;;;;;8.23;7.43;;;6.30;99.90;;;;;;5031804;28;20226;-83
2021/04/13 06:20:27;;;;;;;8.27;7.53;;;5.90;99.90;;;;;;5033932;28;20423;-82
2021/04/13 06:22:55;;;;;;;7.60;6.80;;;5.80;99.90;;;;;;5030312;28;20173;-82
2021/04/13 06:25:25;;;;;;;7.87;7.17;;;5.60;99.90;;;;;;5018450;28;20518;-79
2021/04/13 06:27:52;;;;;;;9.50;8.60;;;5.40;99.90;;;;;;5024530;28;20435;-82
2021/04/13 06:30:20;;;;;;;8.20;7.50;;;5.40;99.90;;;;;;5030166;28;20435;-83
2021/04/13 06:32:45;;;;;;;10.95;9.68;;;5.20;99.90;;;;;;5029455;28;20806;-83
2021/04/13 06:35:12;;;;;;;10.57;8.83;;;5.40;99.90;;;;;;5030012;28;20216;-83
2021/04/13 06:37:41;;;;;;;8.10;7.40;;;5.10;99.90;;;;;;5032653;28;20177;-83
2021/04/13 06:40:09;;;;;;;9.07;8.13;;;5.20;99.90;;;;;;5020825;28;20478;-83
2021/04/13 06:42:46;;;;;;;9.60;8.60;;;5.20;99.90;;;;;;5029054;28;20424;-76
2021/04/13 06:45:51;;;;;;;10.67;9.67;;;4.90;99.90;;;;;;5032290;28;20426;-83
2021/04/13 06:49:02;;;;;;;10.53;9.47;;;4.90;99.90;;;;;;5029909;28;20790;-82
2021/04/13 06:51:51;;;;;;;12.17;10.07;;;4.90;99.90;;;;;;4999309;28;20443;-84
2021/04/13 06:54:24;;;;;;;12.27;11.07;;;4.90;99.90;;;;;;5017838;28;20523;-82
2021/04/13 06:57:05;;;;;;;12.47;10.20;;;4.60;99.90;;;;;;5046554;28;20439;-82
2021/04/13 06:59:47;;;;;;;10.80;9.70;;;4.60;99.90;;;;;;5029564;28;20489;-83
2021/04/13 07:02:23;;;;;;;13.40;11.73;;;4.50;99.90;;;;;;5021952;28;20438;-83
2021/04/13 07:04:59;;;;;;;10.57;9.00;;;4.20;99.90;;;;;;5025461;28;20424;-83
2021/04/13 07:07:31;;;;;;;11.77;10.57;;;4.30;99.90;;;;;;5025341;28;20525;-83
2021/04/13 07:10:06;;;;;;;14.17;11.43;;;4.10;99.90;;;;;;5046332;28;20470;-85
2021/04/13 07:13:11;;;;;;;14.73;12.87;;;4.10;99.90;;;;;;5044809;28;20439;-83
2021/04/13 07:16:02;;;;;;;15.87;14.37;;;4.10;99.90;;;;;;5001528;28;20455;-84
2021/04/13 07:18:41;;;;;;;15.13;12.47;;;4.10;99.90;;;;;;5022815;28;21240;-84
2021/04/13 07:21:13;;;;;;;13.13;10.90;;;4.20;99.90;;;;;;5045841;28;20439;-85
2021/04/13 07:23:43;;;;;;;16.80;14.07;;;4.30;99.90;;;;;;5032339;28;21009;-86
2021/04/13 07:26:35;;;;;;;15.23;13.73;;;4.30;99.90;;;;;;5031684;28;20434;-84
2021/04/13 07:29:16;;;;;;;13.43;12.10;;;4.20;99.90;;;;;;5029671;28;20957;-85
2021/04/13 07:31:54;;;;;;;16.10;13.63;;;4.10;99.90;;;;;;5025242;28;21227;-85
2021/04/13 07:34:21;;;;;;;15.37;13.63;;;4.10;99.90;;;;;;5030233;28;20938;-86
2021/04/13 07:37:02;;;;;;;11.23;10.13;;;4.30;99.90;;;;;;5032079;28;20435;-86
2021/04/13 07:39:29;;;;;;;11.23;10.13;;;4.30;99.90;;;;;;5026980;28;20482;-85
2021/04/13 07:42:05;;;;;;;12.77;11.47;;;4.40;99.90;;;;;;5023415;28;20438;-77
2021/04/13 07:44:56;;;;;;;11.93;10.60;;;4.80;99.90;;;;;;5023287;28;20519;-84
2021/04/13 07:47:59;;;;;;;12.13;11.10;;;5.30;99.90;;;;;;5029135;28;20925;-85
2021/04/13 07:50:38;;;;;;;11.90;10.80;;;5.80;99.90;;;;;;5046838;28;20462;-86
2021/04/13 07:53:26;;;;;;;10.93;10.03;;;6.00;99.90;;;;;;5046853;28;21009;-85
2021/04/13 07:56:07;;;;;;;13.00;11.90;;;6.10;99.90;;;;;;5035113;28;20415;-84
2021/04/13 07:58:48;;;;;;;10.40;9.60;;;6.20;99.90;;;;;;5034512;28;20469;-84
2021/04/13 08:01:15;;;;;;;12.93;11.83;;;6.50;99.90;;;;;;5033844;28;20568;-83
2021/04/13 08:03:40;;;;;;;11.45;10.40;;;7.30;99.90;;;;;;5034142;28;20425;-82
2021/04/13 08:06:28;;;;;;;11.10;10.10;;;8.70;99.90;;;;;;5035722;28;20199;-85
2021/04/13 08:09:12;;;;;;;10.47;9.60;;;9.00;39.30;;;;;;5052407;28;20180;-84
2021/04/13 08:11:37;;;;;;;14.77;12.23;;;9.70;1.00;;;;;;5050564;28;20786;-85
2021/04/13 08:14:20;;;;;;;32.50;14.00;;;9.80;1.00;;;;;;5034697;28;20423;-83
2021/04/13 08:16:46;;;;;;;12.43;11.43;;;8.90;99.90;;;;;;5035023;28;20675;-83
2021/04/13 08:19:28;;;;;;;11.73;10.73;;;8.40;1.00;;;;;;5034831;28;20467;-83
2021/04/13 08:22:13;;;;;;;21.77;13.90;;;8.60;1.00;;;;;;5033935;28;20430;-84
2021/04/13 08:24:42;;;;;;;12.53;11.13;;;9.10;1.00;;;;;;5034369;28;20899;-84
2021/04/13 08:27:26;;;;;;;11.33;10.33;;;10.30;1.00;;;;;;5050376;28;20423;-85
2021/04/13 08:30:01;;;;;;;10.90;9.80;;;9.80;1.70;;;;;;5051210;28;20446;-83
2021/04/13 08:32:51;;;;;;;8.90;8.20;;;9.90;1.00;;;;;;5051174;28;20417;-84
2021/04/13 08:35:39;;;;;;;12.60;11.50;;;10.10;1.00;;;;;;5034219;28;20411;-84
2021/04/13 08:38:26;;;;;;;23.00;11.43;;;9.90;1.00;;;;;;5035469;28;20419;-84
2021/04/13 08:41:10;;;;;;;13.10;12.00;;;9.00;99.90;;;;;;5050415;28;20431;-85
2021/04/13 08:44:14;;;;;;;12.10;11.10;;;9.00;99.90;;;;;;5035033;28;20923;-83
2021/04/13 08:46:46;;;;;;;14.20;12.90;;;8.20;99.90;;;;;;5026199;28;20427;-83
2021/04/13 08:49:30;;;;;;;12.93;11.83;;;7.40;1.00;;;;;;5034581;28;20469;-84
2021/04/13 08:52:31;;;;;;;18.40;12.93;;;7.70;1.00;;;;;;5033620;28;20949;-82
2021/04/13 08:55:21;;;;;;;13.43;12.23;;;8.50;1.00;;;;;;5033328;28;20423;-83
2021/04/13 08:58:17;;;;;;;13.77;12.53;;;8.40;1.00;;;;;;5032911;28;20427;-84
2021/04/13 09:00:47;;;;;;;21.57;12.90;;;7.90;1.00;;;;;;5033199;28;20481;-83
2021/04/13 09:03:18;;;;;;;11.40;10.30;;;7.90;1.00;;;;;;5035389;28;20481;-85
2021/04/13 09:05:48;;;;;;;12.57;11.50;;;7.60;99.90;;;;;;5033925;28;20431;-82
2021/04/13 09:08:28;;;;;;;13.23;11.53;;;7.60;1.00;;;;;;5032766;28;20420;-85
2021/04/13 09:11:16;;;;;;;11.87;10.73;;;7.60;1.00;;;;;;5034148;28;20467;-83
2021/04/13 09:13:59;;;;;;;14.00;12.77;;;7.30;1.00;;;;;;5034261;28;20510;-84
2021/04/13 09:16:26;;;;;;;12.93;11.73;;;7.10;1.00;;;;;;5033497;28;20432;-78
2021/04/13 09:18:56;;;;;;;12.27;9.93;;;8.00;1.00;;;;;;5032977;28;21009;-84
2021/04/13 09:21:27;;;;;;;11.77;10.00;;;9.60;99.90;;;;;;5034582;28;20775;-84
2021/04/13 09:24:19;;;;;;;10.63;9.77;;;10.00;99.90;;;;;;5050236;28;20846;-84
2021/04/13 09:26:56;;;;;;;11.33;10.30;;;10.00;1.00;;;;;;5033385;28;20439;-85
2021/04/13 09:29:30;;;;;;;12.43;10.27;;;9.60;1.00;;;;;;5034740;28;20443;-84
2021/04/13 09:31:56;;;;;;;10.57;9.47;;;9.90;99.90;;;;;;5033883;28;20992;-85
2021/04/13 09:34:48;;;;;;;9.50;8.80;;;10.40;99.90;;;;;;5034586;28;20427;-84
2021/04/13 09:37:37;;;;;;;9.13;8.43;;;10.30;1.00;;;;;;5033597;28;20427;-82
2021/04/13 09:40:33;;;;;;;10.00;9.30;;;11.90;1.00;;;;;;5047058;28;21021;-84
2021/04/13 09:43:20;;;;;;;10.60;9.77;;;12.30;1.00;;;;;;5050424;28;20752;-84
2021/04/13 09:46:07;;;;;;;9.90;9.10;;;11.70;1.00;;;;;;5034584;28;20950;-85
2021/04/13 09:48:52;;;;;;;10.90;9.63;;;12.70;1.00;;;;;;5050576;28;20442;-84
2021/04/13 09:51:27;;;;;;;9.60;8.90;;;11.90;1.00;;;;;;5037666;28;20419;-83
2021/04/13 09:54:13;;;;;;;11.20;10.30;;;11.50;1.00;;;;;;5045855;28;20432;-83
2021/04/13 09:56:51;;;;;;;10.97;9.97;;;10.40;1.00;;;;;;5021504;28;20486;-85
2021/04/13 09:59:42;;;;;;;12.63;11.43;;;9.90;1.00;;;;;;5045089;28;20994;-83
2021/04/13 10:02:14;;;;;;;11.13;10.13;;;9.30;99.90;;;;;;5032035;28;20431;-81
2021/04/13 10:04:53;;;;;;;14.17;11.23;;;9.40;99.90;;;;;;5047543;28;20442;-83
2021/04/13 10:07:29;;;;;;;11.87;10.77;;;8.50;1.00;;;;;;5029732;28;20763;-84
2021/04/13 10:09:58;;;;;;;12.90;11.30;;;8.50;1.00;;;;;;5046906;28;20454;-84
2021/04/13 10:12:46;;;;;;;10.80;9.80;;;8.10;47.30;;;;;;5033774;28;20552;-85
2021/04/13 10:15:59;;;;;;;11.53;10.33;;;8.10;99.90;;;;;;5034318;28;20419;-84
2021/04/13 10:19:02;;;;;;;11.90;10.80;;;7.80;99.90;;;;;;4995578;28;20464;-84
2021/04/13 10:21:54;;;;;;;10.13;9.20;;;7.80;80.80;;;;;;5032966;28;20438;-83
2021/04/13 10:24:38;;;;;;;10.37;9.40;;;7.90;99.90;;;;;;5030668;28;20526;-85
2021/04/13 10:27:25;;;;;;;8.20;7.50;;;9.50;1.00;;;;;;5032298;28;20431;-84
2021/04/13 10:29:59;;;;;;;7.97;7.27;;;11.40;1.00;;;;;;5012915;28;20924;-84
2021/04/13 10:32:37;;;;;;;8.83;8.13;;;12.10;1.00;;;;;;5013325;28;20412;-84
2021/04/13 10:35:52;;;;;;;9.07;8.40;;;12.90;99.90;;;;;;5028809;28;20527;-84
2021/04/13 10:38:43;;;;;;;9.10;8.40;;;14.00;99.90;;;;;;5013644;28;20504;-85
2021/04/13 10:41:45;;;;;;;9.53;8.83;;;13.80;99.90;;;;;;5011866;28;20468;-85
2021/04/13 10:44:32;;;;;;;9.40;8.73;;;13.10;99.90;;;;;;5027112;28;20416;-84
2021/04/13 10:47:00;;;;;;;9.40;8.70;;;12.50;99.90;;;;;;5012675;28;20428;-84
2021/04/13 10:49:40;;;;;;;9.17;8.57;;;13.00;99.90;;;;;;5028433;28;20440;-84
2021/04/13 10:53:10;;;;;;;9.07;8.43;;;14.20;99.90;;;;;;5043148;28;20554;-86
2021/04/13 10:56:00;;;;;;;9.33;8.70;;;15.70;99.90;;;;;;4945039;28;20481;-85
2021/04/13 10:59:01;;;;;;;8.53;6.97;;;14.60;99.90;;;;;;5029261;28;20880;-85
2021/04/13 11:01:51;;;;;;;10.83;9.97;;;13.80;99.90;;;;;;5027737;28;20443;-84
2021/04/13 11:04:59;;;;;;;10.60;9.10;;;12.40;99.90;;;;;;5028094;28;20949;-84
2021/04/13 11:07:42;;;;;;;10.33;9.60;;;10.60;99.90;;;;;;5000166;28;20494;-84
2021/04/13 11:10:27;;;;;;;10.37;9.47;;;10.30;99.90;;;;;;5030277;28;20471;-86
2021/04/13 11:12:58;;;;;;;10.83;9.93;;;10.30;99.90;;;;;;5030991;28;20435;-84
2021/04/13 11:15:36;;;;;;;10.10;9.30;;;10.10;1.00;;;;;;5029964;28;20439;-85
2021/04/13 11:18:54;;;;;;;10.60;9.50;;;10.10;1.00;;;;;;5040887;28;20431;-84
2021/04/13 11:21:58;;;;;;;8.37;7.57;;;9.50;1.00;;;;;;5025975;28;20782;-85
2021/04/13 11:24:38;;;;;;;10.70;9.70;;;9.60;1.00;;;;;;5032615;28;20443;-83
2021/04/13 11:27:22;;;;;;;8.33;7.63;;;9.40;1.00;;;;;;5040567;28;20414;-85
2021/04/13 11:30:15;;;;;;;10.03;9.00;;;9.40;1.00;;;;;;5043788;28;20487;-83
2021/04/13 11:32:57;;;;;;;6.70;6.20;;;9.60;1.00;;;;;;5025141;28;20414;-85
2021/04/13 11:35:44;;;;;;;5.57;5.10;;;9.60;1.00;;;;;;5030433;28;20573;-85
2021/04/13 11:38:35;;;;;;;6.87;5.50;;;8.60;99.90;;;;;;5028858;28;20505;-84
2021/04/13 11:41:19;;;;;;;5.90;5.47;;;8.20;99.90;;;;;;5047260;28;21033;-84
2021/04/13 11:43:55;;;;;;;5.07;4.67;;;7.50;99.90;;;;;;5031462;28;20422;-84
2021/04/13 11:46:30;;;;;;;5.30;4.80;;;7.70;99.90;;;;;;5046505;28;20438;-85
2021/04/13 11:49:10;;;;;;;4.23;3.83;;;7.90;99.90;;;;;;5020628;28;20857;-86
2021/04/13 11:52:04;;;;;;;5.27;4.80;;;8.00;32.20;;;;;;5042402;28;20553;-84
2021/04/13 11:54:43;;;;;;;5.90;5.33;;;8.10;1.00;;;;;;5038203;28;20410;-84
2021/04/13 11:57:16;;;;;;;5.73;5.23;;;8.10;1.00;;;;;;5059073;28;20442;-83
2021/04/13 11:59:42;;;;;;;6.20;5.70;;;8.50;1.00;;;;;;5028394;28;20478;-84
2021/04/13 12:02:28;;;;;;;5.73;5.10;;;9.50;1.00;;;;;;5035662;28;20427;-86
2021/04/13 12:04:56;;;;;;;6.33;5.73;;;9.90;1.00;;;;;;5031443;28;20956;-84
2021/04/13 12:07:54;;;;;;;6.67;6.07;;;9.80;99.90;;;;;;5042174;28;20513;-86
2021/04/13 12:10:32;;;;;;;6.87;6.33;;;10.00;99.90;;;;;;5024224;28;20467;-84
2021/04/13 12:13:04;;;;;;;5.67;5.27;;;10.00;99.90;;;;;;5031751;28;20430;-84
2021/04/13 12:15:41;;;;;;;6.27;5.67;;;10.30;99.90;;;;;;5037116;28;20403;-78
2021/04/13 12:18:35;;;;;;;7.03;5.63;;;9.90;99.90;;;;;;5037106;28;20431;-85
2021/04/13 12:21:25;;;;;;;7.23;6.53;;;9.70;99.90;;;;;;5014166;28;21103;-84
2021/04/13 12:23:54;;;;;;;7.07;6.47;;;9.90;99.90;;;;;;5029272;28;20585;-82
2021/04/13 12:26:41;;;;;;;6.73;6.23;;;9.90;99.90;;;;;;5048314;28;20481;-80
2021/04/13 12:29:22;;;;;;;6.60;6.00;;;9.60;99.90;;;;;;5036562;28;20616;-84
2021/04/13 12:32:13;;;;;;;7.13;6.53;;;9.30;99.90;;;;;;5063090;28;20426;-85
2021/04/13 12:34:59;;;;;;;6.13;5.57;;;8.90;99.90;;;;;;5024761;28;20410;-84
2021/04/13 12:37:47;;;;;;;6.03;5.53;;;9.10;99.90;;;;;;5057211;28;20427;-78
2021/04/13 12:40:19;;;;;;;10.23;8.10;;;9.40;99.90;;;;;;5046041;28;20863;-85
2021/04/13 12:42:53;;;;;;;6.60;6.00;;;8.70;1.00;;;;;;5032719;28;20431;-86
2021/04/13 12:45:19;;;;;;;8.50;7.70;;;8.40;99.90;;;;;;5032012;28;20431;-86
2021/04/13 12:48:11;;;;;;;7.77;6.83;;;7.80;99.90;;;;;;5049718;28;21004;-86
2021/04/13 12:50:44;;;;;;;7.73;6.97;;;7.80;99.90;;;;;;5051137;28;20218;-86
2021/04/13 12:53:19;;;;;;;12.20;8.23;;;7.50;1.00;;;;;;5036258;28;20423;-85
2021/04/13 12:55:45;;;;;;;8.00;7.27;;;7.40;1.00;;;;;;5033430;28;20423;-85
2021/04/13 12:58:14;;;;;;;5.50;4.97;;;7.00;1.00;;;;;;5034074;28;20414;-86
2021/04/13 13:00:48;;;;;;;7.03;6.30;;;6.80;1.00;;;;;;5032562;28;20527;-85
2021/04/13 13:03:21;;;;;;;7.87;6.97;;;7.00;8.60;;;;;;5032861;28;21165;-85
2021/04/13 13:05:49;;;;;;;8.03;7.23;;;7.00;1.00;;;;;;5032793;28;20427;-85
2021/04/13 13:08:24;;;;;;;13.57;6.80;;;7.10;1.00;;;;;;5033147;28;20419;-86
2021/04/13 13:10:55;;;;;;;8.90;7.27;;;7.10;1.00;;;;;;5034798;28;20540;-85
2021/04/13 13:13:33;;;;;;;10.13;7.40;;;7.30;1.00;;;;;;5034412;28;20419;-85
2021/04/13 13:16:11;;;;;;;15.63;14.13;;;7.30;1.00;;;;;;5033091;28;20427;-85
2021/04/13 13:18:42;;;;;;;6.30;5.70;;;7.20;1.00;;;;;;5034222;28;20791;-85
2021/04/13 13:21:18;;;;;;;9.17;6.20;;;7.40;1.00;;;;;;5032526;28;20784;-83
2021/04/13 13:23:53;;;;;;;7.93;6.70;;;8.10;1.00;;;;;;5032650;28;20513;-87
2021/04/13 13:26:28;;;;;;;5.27;4.87;;;8.40;1.00;;;;;;5032751;28;20510;-84
2021/04/13 13:28:53;;;;;;;7.63;6.83;;;8.70;99.90;;;;;;5034065;28;20497;-80
2021/04/13 13:31:27;;;;;;;7.43;6.73;;;8.90;62.70;;;;;;5048921;28;20435;-86
2021/04/13 13:33:57;;;;;;;7.10;6.50;;;9.20;99.90;;;;;;5034032;28;20173;-83
2021/04/13 13:36:25;;;;;;;9.00;7.40;;;8.90;99.90;;;;;;5031755;28;20430;-86
2021/04/13 13:38:52;;;;;;;7.40;6.70;;;8.10;1.00;;;;;;5032591;28;20474;-84
2021/04/13 13:41:22;;;;;;;7.07;6.50;;;7.90;1.00;;;;;;5034509;28;20420;-86
2021/04/13 13:43:48;;;;;;;10.07;6.77;;;8.00;1.00;;;;;;5032198;28;20517;-85
2021/04/13 13:46:32;;;;;;;7.60;6.90;;;8.00;42.20;;;;;;5033071;28;20427;-79
2021/04/13 13:49:38;;;;;;;6.60;5.57;;;8.00;99.90;;;;;;5038423;28;20411;-84